Time;durP1;ratioP1;P1;durP2;ratioP2;P2;SDS_P1;SDS_P2;PMS_P1;PMS_P2;Temp;Humidity;BMP_temperature;BMP_pressure;BME280_temperature;BME280_humidity;BME280_pressure;Samples;Min_cycle;Max_cycle;Signal;HPM_P1;HPM_P2
2021/07/03 00:01:46;;;;;;;;;;;;;;;20.05;64.28;101461.72;5014914;28;1736;-59
2021/07/03 00:04:11;;;;;;;;;;;;;;;20.04;63.63;101460.00;5014980;28;965;-60
2021/07/03 00:06:36;;;;;;;;;;;;;;;20.04;63.96;101461.88;5014893;28;952;-60
2021/07/03 00:09:01;;;;;;;;;;;;;;;20.04;64.06;101456.44;5015169;28;1527;-60
2021/07/03 00:11:26;;;;;;;;;;;;;;;20.03;64.63;101454.75;5014809;28;1898;-60
2021/07/03 00:13:51;;;;;;;;;;;;;;;20.03;63.82;101460.16;5015088;28;887;-60
2021/07/03 00:16:16;;;;;;;;;;;;;;;20.03;64.49;101462.84;5014861;28;993;-60
2021/07/03 00:18:41;;;;;;;;;;;;;;;20.01;64.17;101462.16;5017218;28;1660;-60
2021/07/03 00:21:06;;;;;;;;;;;;;;;20.01;64.10;101459.44;5018064;28;1903;-60
2021/07/03 00:23:32;;;;;;;;;;;;;;;20.01;63.99;101456.75;5018710;28;1052;-59
2021/07/03 00:25:57;;;;;;;;;;;;;;;20.00;64.11;101465.84;5017888;28;913;-60
2021/07/03 00:28:22;;;;;;;;;;;;;;;19.99;63.74;101469.56;5018565;28;1672;-60
2021/07/03 00:30:47;;;;;;;;;;;;;;;19.99;63.94;101462.28;5017703;28;1914;-60
2021/07/03 00:33:12;;;;;;;;;;;;;;;19.98;63.87;101457.03;5018236;28;1789;-60
2021/07/03 00:35:37;;;;;;;;;;;;;;;19.97;63.35;101456.16;5018240;28;1985;-60
2021/07/03 00:38:02;;;;;;;;;;;;;;;19.96;64.56;101465.28;5018390;28;1600;-60
2021/07/03 00:40:28;;;;;;;;;;;;;;;19.98;64.35;101462.44;5017914;28;1826;-59
2021/07/03 00:42:53;;;;;;;;;;;;;;;19.97;64.03;101458.88;5017885;28;830;-59
2021/07/03 00:45:18;;;;;;;;;;;;;;;19.95;63.48;101458.16;5018225;28;997;-59
2021/07/03 00:47:43;;;;;;;;;;;;;;;19.94;64.16;101461.00;5017717;28;1560;-60
2021/07/03 00:50:09;;;;;;;;;;;;;;;19.93;63.49;101451.19;5017425;28;1894;-59
2021/07/03 00:52:34;;;;;;;;;;;;;;;19.94;64.35;101450.19;5017796;28;814;-59
2021/07/03 00:54:59;;;;;;;;;;;;;;;19.92;63.37;101452.19;5018067;28;969;-58
2021/07/03 00:57:24;;;;;;;;;;;;;;;19.92;63.35;101442.22;5018003;28;1896;-59
2021/07/03 00:59:49;;;;;;;;;;;;;;;19.92;63.23;101446.78;5017727;28;1866;-59
2021/07/03 01:02:14;;;;;;;;;;;;;;;19.93;64.30;101443.06;5017352;28;931;-59
2021/07/03 01:04:39;;;;;;;;;;;;;;;19.92;63.65;101441.38;5017295;28;859;-58
2021/07/03 01:07:04;;;;;;;;;;;;;;;19.90;63.44;101443.34;5017526;28;931;-59
2021/07/03 01:09:29;;;;;;;;;;;;;;;19.89;63.44;101445.22;5017419;28;1745;-59
2021/07/03 01:11:55;;;;;;;;;;;;;;;19.89;63.41;101450.63;5017218;28;1897;-58
2021/07/03 01:14:20;;;;;;;;;;;;;;;19.90;63.72;101446.06;5017457;28;901;-58
2021/07/03 01:16:45;;;;;;;;;;;;;;;19.88;63.68;101454.34;5017543;28;845;-56
2021/07/03 01:19:10;;;;;;;;;;;;;;;19.87;63.73;101449.94;5017178;28;1809;-57
2021/07/03 01:21:35;;;;;;;;;;;;;;;19.87;63.88;101443.69;5017477;28;1458;-57
2021/07/03 01:24:00;;;;;;;;;;;;;;;19.86;63.31;101447.38;5017319;28;1060;-57
2021/07/03 01:26:25;;;;;;;;;;;;;;;19.84;63.87;101449.38;5017091;28;997;-57
2021/07/03 01:28:50;;;;;;;;;;;;;;;19.84;63.08;101443.97;5016687;28;1800;-55
2021/07/03 01:31:15;;;;;;;;;;;;;;;19.83;63.72;101448.50;5017107;28;1979;-57
2021/07/03 01:33:40;;;;;;;;;;;;;;;19.83;63.10;101434.13;5017204;28;1056;-57
2021/07/03 01:36:05;;;;;;;;;;;;;;;19.83;63.58;101439.53;5016828;28;932;-57
2021/07/03 01:38:31;;;;;;;;;;;;;;;19.83;63.18;101444.97;5016740;28;1786;-57
2021/07/03 01:40:56;;;;;;;;;;;;;;;19.82;63.02;101446.81;5016666;28;1794;-57
2021/07/03 01:43:21;;;;;;;;;;;;;;;19.81;64.03;101449.66;5017120;28;807;-58
2021/07/03 01:45:46;;;;;;;;;;;;;;;19.81;63.66;101441.53;5017080;28;925;-58
2021/07/03 01:48:11;;;;;;;;;;;;;;;19.79;62.96;101446.22;5016222;28;1845;-60
2021/07/03 01:50:36;;;;;;;;;;;;;;;19.78;62.98;101439.97;5016388;28;1957;-60
2021/07/03 01:53:01;;;;;;;;;;;;;;;19.77;63.72;101447.22;5016871;28;952;-59
2021/07/03 01:55:27;;;;;;;;;;;;;;;19.77;63.41;101444.53;5016152;28;930;-59
2021/07/03 01:57:52;;;;;;;;;;;;;;;19.76;63.08;101445.53;5015780;28;1403;-59
2021/07/03 02:00:17;;;;;;;;;;;;;;;19.76;63.54;101448.22;5016161;28;1024;-59
2021/07/03 02:02:42;;;;;;;;;;;;;;;19.75;63.03;101441.09;5016311;28;807;-59
2021/07/03 02:05:07;;;;;;;;;;;;;;;19.74;63.26;101450.22;5016404;28;1854;-59
2021/07/03 02:07:32;;;;;;;;;;;;;;;19.74;63.36;101444.81;5016564;28;989;-59
2021/07/03 02:09:57;;;;;;;;;;;;;;;19.73;63.66;101447.66;5016155;28;1965;-60
2021/07/03 02:12:22;;;;;;;;;;;;;;;19.72;63.10;101444.09;5016197;28;783;-59
2021/07/03 02:14:47;;;;;;;;;;;;;;;19.72;63.21;101435.13;5015972;28;1001;-59
2021/07/03 02:17:12;;;;;;;;;;;;;;;19.71;63.00;101431.56;5016196;28;1894;-59
2021/07/03 02:19:37;;;;;;;;;;;;;;;19.70;62.89;101427.19;5016276;28;1875;-59
2021/07/03 02:22:02;;;;;;;;;;;;;;;19.69;62.93;101420.06;5016524;28;993;-59
2021/07/03 02:24:27;;;;;;;;;;;;;;;19.69;63.24;101424.63;5015959;28;1079;-59
2021/07/03 02:26:53;;;;;;;;;;;;;;;19.67;62.74;101427.47;5016425;28;849;-59
2021/07/03 02:29:18;;;;;;;;;;;;;;;19.68;63.38;101423.78;5015758;28;1874;-59
2021/07/03 02:31:43;;;;;;;;;;;;;;;19.68;62.91;101414.81;5016171;28;1953;-59
2021/07/03 02:34:08;;;;;;;;;;;;;;;19.65;62.78;101413.25;5016514;28;925;-59
2021/07/03 02:36:33;;;;;;;;;;;;;;;19.65;63.11;101410.53;5015695;28;891;-60
2021/07/03 02:38:58;;;;;;;;;;;;;;;19.64;63.66;101419.63;5015709;28;1733;-60
2021/07/03 02:41:23;;;;;;;;;;;;;;;19.64;62.96;101414.22;5015005;28;1764;-59
2021/07/03 02:43:48;;;;;;;;;;;;;;;19.62;63.08;101413.53;5015422;28;791;-59
2021/07/03 02:46:13;;;;;;;;;;;;;;;19.62;62.62;101412.66;5016193;28;1048;-58
2021/07/03 02:48:38;;;;;;;;;;;;;;;19.62;62.91;101408.13;5015880;28;1546;-60
2021/07/03 02:51:03;;;;;;;;;;;;;;;19.61;62.62;101411.81;5013849;28;1906;-60
2021/07/03 02:53:28;;;;;;;;;;;;;;;19.60;62.95;101407.41;5015566;28;965;-60
2021/07/03 02:55:54;;;;;;;;;;;;;;;19.60;62.29;101406.53;5015632;28;912;-58
2021/07/03 02:58:19;;;;;;;;;;;;;;;19.59;62.77;101404.84;5015855;28;948;-59
2021/07/03 03:00:44;;;;;;;;;;;;;;;19.59;63.42;101402.13;5015532;28;1882;-58
2021/07/03 03:03:09;;;;;;;;;;;;;;;19.58;62.37;101400.44;5015305;28;1012;-59
2021/07/03 03:05:34;;;;;;;;;;;;;;;19.57;63.13;101404.97;5014498;28;902;-57
2021/07/03 03:07:59;;;;;;;;;;;;;;;19.57;62.93;101391.47;5015348;28;922;-58
2021/07/03 03:10:24;;;;;;;;;;;;;;;19.57;63.31;101404.97;5014745;28;1969;-58
2021/07/03 03:12:49;;;;;;;;;;;;;;;19.56;62.56;101400.56;5015157;28;1021;-58
2021/07/03 03:15:14;;;;;;;;;;;;;;;19.55;62.83;101409.69;5015002;28;1076;-58
2021/07/03 03:17:39;;;;;;;;;;;;;;;19.56;63.01;101405.13;5015003;28;1009;-58
2021/07/03 03:20:04;;;;;;;;;;;;;;;19.55;62.70;101400.72;5015176;28;1636;-59
2021/07/03 03:22:30;;;;;;;;;;;;;;;19.55;62.37;101401.56;5013977;28;1640;-58
2021/07/03 03:24:55;;;;;;;;;;;;;;;19.54;62.67;101394.44;5015346;28;915;-58
2021/07/03 03:27:20;;;;;;;;;;;;;;;19.53;63.09;101398.16;5015277;28;988;-58
2021/07/03 03:29:45;;;;;;;;;;;;;;;19.50;62.77;101392.19;5015004;28;1828;-58
2021/07/03 03:32:10;;;;;;;;;;;;;;;19.52;62.68;101393.78;5015213;28;1910;-59
2021/07/03 03:34:35;;;;;;;;;;;;;;;19.52;63.06;101388.38;5015422;28;1145;-59
2021/07/03 03:37:00;;;;;;;;;;;;;;;19.53;62.95;101386.47;5015526;28;1072;-59
2021/07/03 03:39:25;;;;;;;;;;;;;;;19.53;63.00;101398.16;5015268;28;972;-59
2021/07/03 03:41:50;;;;;;;;;;;;;;;19.54;62.97;101391.75;5014782;28;1746;-59
2021/07/03 03:44:16;;;;;;;;;;;;;;;19.53;62.61;101387.34;5015098;28;1784;-59
2021/07/03 03:46:41;;;;;;;;;;;;;;;19.53;63.51;101381.06;5014775;28;865;-59
2021/07/03 03:49:06;;;;;;;;;;;;;;;19.48;62.73;101378.78;5014728;28;1778;-58
2021/07/03 03:51:31;;;;;;;;;;;;;;;19.48;63.55;101381.50;5015177;28;1962;-58
2021/07/03 03:53:56;;;;;;;;;;;;;;;19.33;63.37;101374.81;5017610;28;988;-60
2021/07/03 03:56:21;;;;;;;;;;;;;;;19.06;64.48;101383.63;5018840;28;1048;-60
2021/07/03 03:58:46;;;;;;;;;;;;;;;19.02;64.15;101368.69;5018850;28;1856;-58
2021/07/03 04:01:11;;;;;;;;;;;;;;;19.02;63.98;101376.78;5018608;28;1778;-57
2021/07/03 04:03:36;;;;;;;;;;;;;;;18.86;64.06;101371.94;5018963;28;1700;-59
2021/07/03 04:06:01;;;;;;;;;;;;;;;18.97;64.15;101377.25;5018318;28;929;-59
2021/07/03 04:08:26;;;;;;;;;;;;;;;18.99;64.11;101377.94;5018110;28;1771;-59
2021/07/03 04:10:52;;;;;;;;;;;;;;;19.05;63.51;101382.78;5018878;28;1894;-59
2021/07/03 04:13:17;;;;;;;;;;;;;;;19.18;63.17;101378.94;5018631;28;934;-59
2021/07/03 04:15:42;;;;;;;;;;;;;;;18.91;64.08;101375.09;5018533;28;866;-59
2021/07/03 04:18:07;;;;;;;;;;;;;;;19.00;63.75;101373.38;5017718;28;1790;-59
2021/07/03 04:20:32;;;;;;;;;;;;;;;18.85;63.73;101380.19;5018542;28;1605;-59
2021/07/03 04:22:57;;;;;;;;;;;;;;;18.94;64.16;101380.22;5018807;28;1005;-59
2021/07/03 04:25:22;;;;;;;;;;;;;;;19.07;63.81;101375.38;5018185;28;846;-59
2021/07/03 04:27:47;;;;;;;;;;;;;;;19.20;63.15;101374.25;5017678;28;1923;-60
2021/07/03 04:30:12;;;;;;;;;;;;;;;19.26;63.69;101374.53;5018648;28;1975;-59
2021/07/03 04:32:37;;;;;;;;;;;;;;;19.29;63.47;101371.56;5017917;28;996;-60
2021/07/03 04:35:02;;;;;;;;;;;;;;;19.32;62.96;101378.53;5018464;28;917;-59
2021/07/03 04:37:28;;;;;;;;;;;;;;;19.34;63.53;101379.25;5018020;28;1020;-60
2021/07/03 04:39:53;;;;;;;;;;;;;;;19.35;63.80;101378.22;5018188;28;2003;-59
2021/07/03 04:42:18;;;;;;;;;;;;;;;19.36;63.47;101371.81;5017647;28;1013;-58
2021/07/03 04:44:43;;;;;;;;;;;;;;;19.38;63.47;101367.13;5017220;28;1692;-59
2021/07/03 04:47:08;;;;;;;;;;;;;;;19.38;63.32;101367.97;5017500;28;1731;-59
2021/07/03 04:49:33;;;;;;;;;;;;;;;19.40;63.40;101375.94;5017059;28;1640;-59
2021/07/03 04:51:58;;;;;;;;;;;;;;;19.45;63.87;101373.66;5017673;28;1961;-59
2021/07/03 04:54:23;;;;;;;;;;;;;;;19.51;63.22;101375.84;5016487;28;1247;-59
2021/07/03 04:56:49;;;;;;;;;;;;;;;19.57;64.00;101372.53;5017794;28;1028;-59
2021/07/03 04:59:14;;;;;;;;;;;;;;;19.59;63.26;101370.53;5017522;28;1803;-59
2021/07/03 05:01:39;;;;;;;;;;;;;;;19.69;64.33;101373.25;5016983;28;1821;-59
2021/07/03 05:04:04;;;;;;;;;;;;;;;19.78;63.80;101372.34;5016418;28;1571;-62
2021/07/03 05:06:29;;;;;;;;;;;;;;;19.82;64.32;101370.22;5016718;28;1740;-60
2021/07/03 05:08:54;;;;;;;;;;;;;;;19.86;64.72;101371.63;5016996;28;1666;-61
2021/07/03 05:11:19;;;;;;;;;;;;;;;19.97;65.82;101371.44;5016866;28;1965;-60
2021/07/03 05:13:44;;;;;;;;;;;;;;;20.04;64.64;101375.28;5017053;28;1699;-59
2021/07/03 05:16:09;;;;;;;;;;;;;;;20.00;64.72;101360.34;5017190;28;884;-59
2021/07/03 05:18:34;;;;;;;;;;;;;;;20.06;63.59;101362.47;5016914;28;1802;-60
2021/07/03 05:21:00;;;;;;;;;;;;;;;20.18;65.03;101371.22;5017413;28;1118;-60
2021/07/03 05:23:25;;;;;;;;;;;;;;;20.21;64.57;101370.94;5016927;28;2019;-60
2021/07/03 05:25:52;;;;;;;;;;;;;;;20.21;64.43;101369.09;5017152;28;961;-60
2021/07/03 05:28:18;;;;;;;;;;;;;;;20.11;64.29;101370.97;5017601;28;826;-60
2021/07/03 05:30:43;;;;;;;;;;;;;;;19.91;64.46;101370.19;5016323;28;1906;-60
2021/07/03 05:33:08;;;;;;;;;;;;;;;19.73;64.30;101371.94;5016688;28;1630;-60
2021/07/03 05:35:33;;;;;;;;;;;;;;;19.61;64.22;101368.56;5016692;28;1584;-60
2021/07/03 05:37:58;;;;;;;;;;;;;;;19.79;64.83;101384.03;5015876;28;1652;-60
2021/07/03 05:40:23;;;;;;;;;;;;;;;19.73;63.83;101380.91;5016193;28;1774;-60
2021/07/03 05:42:48;;;;;;;;;;;;;;;19.92;64.03;101376.44;5016444;28;1781;-60
2021/07/03 05:45:15;;;;;;;;;;;;;;;19.98;63.99;101374.00;5016240;28;1733;-60
2021/07/03 05:47:40;;;;;;;;;;;;;;;19.97;64.26;101368.75;5016302;28;1717;-60
2021/07/03 05:50:05;;;;;;;;;;;;;;;19.93;63.51;101375.44;5016117;28;1942;-61
2021/07/03 05:52:30;;;;;;;;;;;;;;;19.66;64.40;101376.22;5015860;28;1728;-60
2021/07/03 05:54:55;;;;;;;;;;;;;;;19.60;64.19;101369.53;5015780;28;1717;-60
2021/07/03 05:57:23;;;;;;;;;;;;;;;19.69;64.28;101360.59;5015057;28;1659;-60
2021/07/03 05:59:48;;;;;;;;;;;;;;;20.05;63.71;101355.34;5015552;28;1616;-61
2021/07/03 06:02:13;;;;;;;;;;;;;;;19.92;64.09;101355.66;5015983;28;1729;-60
2021/07/03 06:04:38;;;;;;;;;;;;;;;19.60;64.40;101356.03;5015728;28;1712;-60
2021/07/03 06:07:03;;;;;;;;;;;;;;;19.69;63.87;101371.41;5015799;28;1549;-60
2021/07/03 06:09:28;;;;;;;;;;;;;;;19.88;63.55;101358.81;5016028;28;1664;-61
2021/07/03 06:11:53;;;;;;;;;;;;;;;19.79;64.36;101356.97;5015332;28;1898;-60
2021/07/03 06:14:19;;;;;;;;;;;;;;;19.76;64.25;101361.69;5015605;28;1808;-60
2021/07/03 06:16:44;;;;;;;;;;;;;;;19.80;65.54;101347.88;5015346;28;1810;-60
2021/07/03 06:19:09;;;;;;;;;;;;;;;19.89;64.29;101355.09;5015825;28;1740;-60
2021/07/03 06:21:34;;;;;;;;;;;;;;;19.83;64.49;101350.28;5016318;28;846;-60
2021/07/03 06:23:59;;;;;;;;;;;;;;;19.83;63.64;101348.44;5016120;28;874;-60
2021/07/03 06:26:24;;;;;;;;;;;;;;;19.75;64.73;101346.44;5016527;28;937;-60
2021/07/03 06:28:49;;;;;;;;;;;;;;;19.72;64.85;101344.03;5015393;28;1720;-60
2021/07/03 06:31:14;;;;;;;;;;;;;;;19.42;65.31;101352.31;5014869;28;1917;-60
2021/07/03 06:33:40;;;;;;;;;;;;;;;19.72;64.15;101348.59;5015619;28;1873;-60
2021/07/03 06:36:05;;;;;;;;;;;;;;;19.88;63.81;101353.41;5016133;28;1307;-61
2021/07/03 06:38:30;;;;;;;;;;;;;;;19.92;63.89;101350.25;5015260;28;1882;-61
2021/07/03 06:40:55;;;;;;;;;;;;;;;19.97;63.67;101347.09;5015660;28;1784;-61
2021/07/03 06:43:20;;;;;;;;;;;;;;;19.79;64.21;101343.47;5015677;28;1002;-61
2021/07/03 06:45:45;;;;;;;;;;;;;;;19.70;64.88;101348.75;5015550;28;905;-60
2021/07/03 06:48:10;;;;;;;;;;;;;;;19.88;64.40;101340.75;5014176;28;2088;-60
2021/07/03 06:50:35;;;;;;;;;;;;;;;19.80;65.32;101345.16;5014628;28;1890;-61
2021/07/03 06:53:00;;;;;;;;;;;;;;;20.08;63.10;101336.06;5014898;28;1662;-60
2021/07/03 06:55:25;;;;;;;;;;;;;;;20.12;63.62;101345.59;5015020;28;1834;-60
2021/07/03 06:57:51;;;;;;;;;;;;;;;20.15;63.26;101348.03;5015366;28;1779;-61
2021/07/03 07:00:16;;;;;;;;;;;;;;;19.91;64.47;101347.69;5015107;28;1896;-60
2021/07/03 07:02:41;;;;;;;;;;;;;;;19.92;64.54;101342.13;5014994;28;1684;-60
2021/07/03 07:05:06;;;;;;;;;;;;;;;20.21;62.87;101338.47;5015736;28;877;-60
2021/07/03 07:07:31;;;;;;;;;;;;;;;20.34;63.88;101337.09;5014991;28;1659;-59
2021/07/03 07:09:56;;;;;;;;;;;;;;;20.28;63.56;101344.97;5014936;28;1811;-59
2021/07/03 07:12:22;;;;;;;;;;;;;;;20.43;63.12;101338.91;5015125;28;1878;-59
2021/07/03 07:14:47;;;;;;;;;;;;;;;20.67;62.45;101345.63;5015637;28;941;-59
2021/07/03 07:17:12;;;;;;;;;;;;;;;20.78;62.13;101348.13;5015555;28;953;-60
2021/07/03 07:19:37;;;;;;;;;;;;;;;20.50;62.81;101336.47;5015263;28;1904;-60
2021/07/03 07:22:02;;;;;;;;;;;;;;;20.72;62.14;101343.31;5015750;28;969;-60
2021/07/03 07:24:27;;;;;;;;;;;;;;;20.88;61.46;101348.91;5014088;28;989;-60
2021/07/03 07:26:52;;;;;;;;;;;;;;;20.94;62.06;101347.44;5016279;28;985;-59
2021/07/03 07:29:17;;;;;;;;;;;;;;;20.97;62.04;101344.41;5019094;28;1771;-59
2021/07/03 07:31:45;;;;;;;;;;;;;;;21.06;61.23;101338.91;5019463;28;1989;-60
2021/07/03 07:34:10;;;;;;;;;;;;;;;21.12;61.51;101351.84;5019570;28;852;-60
2021/07/03 07:36:35;;;;;;;;;;;;;;;21.19;61.21;101340.38;5019354;28;1807;-60
2021/07/03 07:39:00;;;;;;;;;;;;;;;21.19;60.41;101337.66;5019018;28;869;-60
2021/07/03 07:41:25;;;;;;;;;;;;;;;21.25;60.26;101339.78;5017597;28;830;-60
2021/07/03 07:43:50;;;;;;;;;;;;;;;21.27;59.81;101343.19;5019103;28;1008;-59
2021/07/03 07:46:15;;;;;;;;;;;;;;;21.28;60.43;101337.63;5018803;28;1842;-60
2021/07/03 07:48:41;;;;;;;;;;;;;;;21.28;59.93;101336.75;5019299;28;1562;-59
2021/07/03 07:51:06;;;;;;;;;;;;;;;21.38;59.76;101337.50;5017193;28;1913;-59
2021/07/03 07:53:31;;;;;;;;;;;;;;;21.42;59.43;101331.63;5018761;28;1960;-59
2021/07/03 07:55:56;;;;;;;;;;;;;;;21.44;59.48;101329.59;5018909;28;835;-59
2021/07/03 07:58:21;;;;;;;;;;;;;;;21.48;59.65;101330.16;5019201;28;798;-60
2021/07/03 08:00:46;;;;;;;;;;;;;;;21.44;59.43;101331.47;5018358;28;1798;-61
2021/07/03 08:03:12;;;;;;;;;;;;;;;21.42;59.59;101325.34;5018607;28;1004;-60
2021/07/03 08:05:37;;;;;;;;;;;;;;;21.51;59.18;101318.97;5018916;28;839;-60
2021/07/03 08:08:05;;;;;;;;;;;;;;;21.50;58.89;101328.09;5018068;28;1582;-60
2021/07/03 08:10:31;;;;;;;;;;;;;;;21.54;59.54;101326.78;5017873;28;1882;-58
2021/07/03 08:12:56;;;;;;;;;;;;;;;21.57;59.27;101320.19;5018169;28;1687;-58
2021/07/03 08:15:21;;;;;;;;;;;;;;;21.61;59.03;101322.44;5017746;28;1814;-58
2021/07/03 08:17:46;;;;;;;;;;;;;;;21.57;59.41;101322.91;5018086;28;1606;-58
2021/07/03 08:20:11;;;;;;;;;;;;;;;21.57;59.22;101322.91;5017659;28;1662;-58
2021/07/03 08:22:36;;;;;;;;;;;;;;;21.64;58.60;101310.41;5017791;28;1715;-58
2021/07/03 08:25:01;;;;;;;;;;;;;;;21.72;58.57;101308.59;5017711;28;1586;-58
2021/07/03 08:27:27;;;;;;;;;;;;;;;21.72;58.28;101308.59;5017821;28;1092;-59
2021/07/03 08:29:53;;;;;;;;;;;;;;;21.74;58.32;101303.84;5018066;28;1660;-59
2021/07/03 08:32:18;;;;;;;;;;;;;;;21.71;58.37;101304.16;5017647;28;1914;-59
2021/07/03 08:34:43;;;;;;;;;;;;;;;21.66;57.33;101306.53;5018296;28;855;-59
2021/07/03 08:37:08;;;;;;;;;;;;;;;21.54;56.95;101304.22;5018145;28;1064;-59
2021/07/03 08:39:33;;;;;;;;;;;;;;;21.65;56.94;101298.56;5016882;28;1541;-59
2021/07/03 08:41:58;;;;;;;;;;;;;;;21.74;56.76;101308.44;5017205;28;1638;-60
2021/07/03 08:44:23;;;;;;;;;;;;;;;21.78;56.89;101305.25;5017142;28;1661;-60
2021/07/03 08:46:48;;;;;;;;;;;;;;;21.77;57.06;101303.53;5017005;28;1856;-58
2021/07/03 08:49:13;;;;;;;;;;;;;;;21.73;58.09;101296.72;5017198;28;1735;-60
2021/07/03 08:51:38;;;;;;;;;;;;;;;21.73;56.75;101304.00;5016530;28;1945;-59
2021/07/03 08:54:05;;;;;;;;;;;;;;;21.68;55.84;101298.22;5016746;28;1665;-59
2021/07/03 08:56:30;;;;;;;;;;;;;;;21.60;55.33;101296.31;5017171;28;1743;-59
2021/07/03 08:58:55;;;;;;;;;;;;;;;21.58;55.50;101294.78;5014221;28;1971;-59
2021/07/03 09:01:20;;;;;;;;;;;;;;;21.72;54.88;101286.03;5017422;28;1764;-59
2021/07/03 09:03:45;;;;;;;;;;;;;;;21.77;54.98;101287.25;5017420;28;1903;-60
2021/07/03 09:06:11;;;;;;;;;;;;;;;21.74;55.40;101289.44;5016586;28;1662;-60
2021/07/03 09:08:36;;;;;;;;;;;;;;;21.76;55.00;101273.84;5016648;28;1667;-62
2021/07/03 09:11:01;;;;;;;;;;;;;;;21.76;55.69;101276.56;5015774;28;1898;-61
2021/07/03 09:13:26;;;;;;;;;;;;;;;21.72;55.66;101278.75;5016710;28;2068;-60
2021/07/03 09:15:51;;;;;;;;;;;;;;;21.85;55.18;101277.47;5016610;28;1621;-61
2021/07/03 09:18:16;;;;;;;;;;;;;;;21.87;55.43;101264.56;5016636;28;1599;-61
2021/07/03 09:20:41;;;;;;;;;;;;;;;21.90;55.54;101269.69;5016280;28;1524;-61
2021/07/03 09:23:07;;;;;;;;;;;;;;;21.90;55.46;101269.69;5016858;28;1639;-61
2021/07/03 09:25:32;;;;;;;;;;;;;;;21.93;55.50;101259.34;5017029;28;1622;-61
2021/07/03 09:27:57;;;;;;;;;;;;;;;21.96;55.63;101264.47;5016659;28;1546;-61
2021/07/03 09:30:23;;;;;;;;;;;;;;;21.90;55.60;101258.81;5016299;28;1906;-61
2021/07/03 09:32:48;;;;;;;;;;;;;;;21.91;55.85;101266.81;5015367;28;1524;-61
2021/07/03 09:35:13;;;;;;;;;;;;;;;21.87;56.34;101264.56;5016756;28;800;-61
2021/07/03 09:37:38;;;;;;;;;;;;;;;21.99;55.00;101255.16;5016759;28;1482;-61
2021/07/03 09:40:03;;;;;;;;;;;;;;;21.95;55.43;101257.31;5016430;28;1803;-62
2021/07/03 09:42:28;;;;;;;;;;;;;;;22.09;54.63;101261.31;5015707;28;796;-61
2021/07/03 09:44:53;;;;;;;;;;;;;;;22.12;55.04;101258.28;5015958;28;1930;-61
2021/07/03 09:47:19;;;;;;;;;;;;;;;22.09;54.55;101258.59;5016041;28;1730;-61
2021/07/03 09:49:44;;;;;;;;;;;;;;;22.05;54.02;101251.78;5015344;28;1667;-61
2021/07/03 09:52:09;;;;;;;;;;;;;;;21.88;53.61;101245.41;5015001;28;1953;-61
2021/07/03 09:54:34;;;;;;;;;;;;;;;21.77;53.80;101248.44;5015404;28;1640;-61
2021/07/03 09:56:59;;;;;;;;;;;;;;;21.77;53.97;101246.56;5015892;28;1638;-61
2021/07/03 09:59:24;;;;;;;;;;;;;;;21.89;54.15;101247.13;5015567;28;1577;-62
2021/07/03 10:01:49;;;;;;;;;;;;;;;21.95;53.93;101251.03;5015505;28;1787;-60
2021/07/03 10:04:14;;;;;;;;;;;;;;;21.99;53.84;101247.00;5015497;28;1544;-61
2021/07/03 10:06:39;;;;;;;;;;;;;;;21.96;54.60;101250.03;5016262;28;1478;-60
2021/07/03 10:09:04;;;;;;;;;;;;;;;21.93;54.92;101255.78;5010950;28;1879;-61
2021/07/03 10:11:29;;;;;;;;;;;;;;;21.84;55.59;101254.91;5013142;28;2205;-61
2021/07/03 10:13:54;;;;;;;;;;;;;;;21.87;55.71;101253.72;5014772;28;866;-61
2021/07/03 10:16:20;;;;;;;;;;;;;;;21.98;54.92;101245.31;5015925;28;879;-61
2021/07/03 10:18:45;;;;;;;;;;;;;;;21.98;54.63;101246.16;5015865;28;1550;-60
2021/07/03 10:21:11;;;;;;;;;;;;;;;22.00;54.63;101243.31;5015562;28;1743;-60
2021/07/03 10:23:36;;;;;;;;;;;;;;;21.95;54.79;101241.03;5015081;28;1639;-60
2021/07/03 10:26:01;;;;;;;;;;;;;;;21.90;54.69;101237.13;5015305;28;1509;-60
2021/07/03 10:28:26;;;;;;;;;;;;;;;21.95;54.90;101246.47;5014975;28;1639;-60
2021/07/03 10:30:51;;;;;;;;;;;;;;;21.91;54.31;101252.38;5014443;28;1918;-60
2021/07/03 10:33:17;;;;;;;;;;;;;;;21.87;54.18;101237.44;5014898;28;1658;-60
2021/07/03 10:35:42;;;;;;;;;;;;;;;21.95;53.74;101251.03;5015402;28;1520;-61
2021/07/03 10:38:07;;;;;;;;;;;;;;;21.91;54.03;101253.22;5014415;28;1511;-60
2021/07/03 10:40:32;;;;;;;;;;;;;;;21.95;53.58;101245.63;5015274;28;1620;-60
2021/07/03 10:42:57;;;;;;;;;;;;;;;21.95;54.29;101242.91;5014861;28;1681;-60
2021/07/03 10:45:23;;;;;;;;;;;;;;;21.79;55.38;101249.97;5014103;28;1839;-61
2021/07/03 10:47:48;;;;;;;;;;;;;;;21.71;55.48;101249.06;5015128;28;1804;-61
2021/07/03 10:50:13;;;;;;;;;;;;;;;21.73;55.39;101241.63;5016050;28;1000;-61
2021/07/03 10:52:39;;;;;;;;;;;;;;;21.81;55.58;101245.22;5015273;28;1898;-61
2021/07/03 10:55:04;;;;;;;;;;;;;;;21.83;54.19;101234.22;5015796;28;1554;-61
2021/07/03 10:57:29;;;;;;;;;;;;;;;21.79;54.06;101236.41;5015192;28;1822;-61
2021/07/03 10:59:54;;;;;;;;;;;;;;;21.86;53.81;101230.31;5015673;28;1635;-61
2021/07/03 11:02:19;;;;;;;;;;;;;;;21.80;53.77;101227.25;5015264;28;977;-61
2021/07/03 11:04:45;;;;;;;;;;;;;;;21.74;54.22;101222.47;5015334;28;1804;-61
2021/07/03 11:07:10;;;;;;;;;;;;;;;21.75;54.01;101228.75;5015748;28;858;-61
2021/07/03 11:09:35;;;;;;;;;;;;;;;21.75;53.94;101226.88;5014933;28;1609;-61
2021/07/03 11:12:08;;;;;;;;;;;;;;;21.85;54.36;101220.50;5013451;28;1906;-61
2021/07/03 11:14:33;;;;;;;;;;;;;;;21.87;53.99;101222.00;5015182;28;1783;-61
2021/07/03 11:16:58;;;;;;;;;;;;;;;21.83;54.28;101216.06;5014910;28;1644;-61
2021/07/03 11:19:24;;;;;;;;;;;;;;;21.86;53.92;101211.31;5014743;28;1567;-61
2021/07/03 11:21:49;;;;;;;;;;;;;;;21.85;54.31;101206.94;5014593;28;1599;-61
2021/07/03 11:24:14;;;;;;;;;;;;;;;21.88;54.70;101212.00;5015057;28;1643;-61
2021/07/03 11:26:39;;;;;;;;;;;;;;;21.90;54.70;101201.84;5014559;28;1717;-60
2021/07/03 11:29:04;;;;;;;;;;;;;;;22.01;54.18;101201.59;5014167;28;1644;-60
2021/07/03 11:31:29;;;;;;;;;;;;;;;22.03;54.56;101199.56;5013708;28;2788;-60
2021/07/03 11:33:54;;;;;;;;;;;;;;;22.05;53.96;101189.34;5013802;28;1088;-60
2021/07/03 11:36:20;;;;;;;;;;;;;;;22.08;53.90;101181.75;5015409;28;897;-60
2021/07/03 11:38:45;;;;;;;;;;;;;;;22.00;53.47;101183.59;5015138;28;1883;-60
2021/07/03 11:41:12;;;;;;;;;;;;;;;22.10;53.58;101173.44;5014891;28;845;-59
2021/07/03 11:43:37;;;;;;;;;;;;;;;22.07;53.40;101168.34;5015171;28;922;-59
2021/07/03 11:46:02;;;;;;;;;;;;;;;22.13;53.58;101168.53;5015222;28;846;-59
2021/07/03 11:48:27;;;;;;;;;;;;;;;22.12;53.62;101161.41;5014988;28;1718;-59
2021/07/03 11:50:52;;;;;;;;;;;;;;;22.12;53.87;101165.97;5015174;28;1960;-59
2021/07/03 11:53:17;;;;;;;;;;;;;;;22.15;54.14;101168.38;5015552;28;1016;-59
2021/07/03 11:55:44;;;;;;;;;;;;;;;22.21;54.14;101170.41;5015014;28;1064;-59
2021/07/03 11:58:09;;;;;;;;;;;;;;;22.16;53.27;101164.63;5014743;28;1837;-60
2021/07/03 12:00:35;;;;;;;;;;;;;;;22.16;53.90;101168.19;5015200;28;1013;-60
2021/07/03 12:03:00;;;;;;;;;;;;;;;22.12;54.55;101164.09;5014870;28;1012;-60
2021/07/03 12:05:25;;;;;;;;;;;;;;;22.12;53.67;101164.09;5014969;28;1804;-60
2021/07/03 12:07:50;;;;;;;;;;;;;;;22.20;54.08;101157.00;5014897;28;862;-59
2021/07/03 12:10:15;;;;;;;;;;;;;;;22.17;54.14;101158.19;5014961;28;1064;-60
2021/07/03 12:12:41;;;;;;;;;;;;;;;22.15;54.40;101160.22;5015135;28;1890;-60
2021/07/03 12:15:06;;;;;;;;;;;;;;;22.11;54.55;101154.28;5017618;28;851;-59
2021/07/03 12:17:31;;;;;;;;;;;;;;;22.09;53.51;101156.28;5017853;28;1925;-60
2021/07/03 12:19:56;;;;;;;;;;;;;;;22.14;53.55;101155.81;5018095;28;1013;-59
2021/07/03 12:22:21;;;;;;;;;;;;;;;22.17;53.70;101152.75;5018222;28;1100;-60
2021/07/03 12:24:46;;;;;;;;;;;;;;;22.13;53.89;101146.81;5018095;28;854;-59
2021/07/03 12:27:11;;;;;;;;;;;;;;;22.13;53.73;101143.25;5018589;28;1522;-60
2021/07/03 12:29:36;;;;;;;;;;;;;;;22.13;53.81;101140.53;5018284;28;1946;-59
2021/07/03 12:32:02;;;;;;;;;;;;;;;22.09;53.56;101140.00;5018308;28;1914;-60
2021/07/03 12:34:27;;;;;;;;;;;;;;;22.08;53.46;101140.19;5018074;28;1073;-60
2021/07/03 12:36:52;;;;;;;;;;;;;;;22.05;53.83;101137.78;5017668;28;1864;-60
2021/07/03 12:39:17;;;;;;;;;;;;;;;22.11;53.83;101142.56;5018003;28;1057;-60